sensor_id;sensor_type;location;lat;lon;timestamp;P1;durP1;ratioP1;P2;durP2;ratioP2
5898;SDS011;2975;50.956;6.962;2023-07-20T00:01:35;5.87;;;2.63;;
5898;SDS011;2975;50.956;6.962;2023-07-20T00:04:00;5.80;;;2.77;;
5898;SDS011;2975;50.956;6.962;2023-07-20T00:06:26;4.03;;;2.40;;
5898;SDS011;2975;50.956;6.962;2023-07-20T00:08:53;6.03;;;2.40;;
5898;SDS011;2975;50.956;6.962;2023-07-20T00:11:24;3.27;;;2.40;;
5898;SDS011;2975;50.956;6.962;2023-07-20T00:13:51;5.27;;;2.93;;
5898;SDS011;2975;50.956;6.962;2023-07-20T00:16:16;5.90;;;2.57;;
5898;SDS011;2975;50.956;6.962;2023-07-20T00:18:42;5.50;;;2.60;;
5898;SDS011;2975;50.956;6.962;2023-07-20T00:21:08;3.80;;;2.40;;
5898;SDS011;2975;50.956;6.962;2023-07-20T00:23:33;5.17;;;2.50;;
5898;SDS011;2975;50.956;6.962;2023-07-20T00:25:59;6.03;;;2.53;;
5898;SDS011;2975;50.956;6.962;2023-07-20T00:28:24;5.07;;;2.53;;
5898;SDS011;2975;50.956;6.962;2023-07-20T00:30:50;3.87;;;2.73;;
5898;SDS011;2975;50.956;6.962;2023-07-20T00:33:16;5.50;;;1.90;;
5898;SDS011;2975;50.956;6.962;2023-07-20T00:35:43;5.37;;;2.50;;
5898;SDS011;2975;50.956;6.962;2023-07-20T00:38:08;5.17;;;2.37;;
5898;SDS011;2975;50.956;6.962;2023-07-20T00:40:35;4.83;;;2.47;;
5898;SDS011;2975;50.956;6.962;2023-07-20T00:43:04;6.43;;;2.57;;
5898;SDS011;2975;50.956;6.962;2023-07-20T00:45:30;2.57;;;2.20;;
5898;SDS011;2975;50.956;6.962;2023-07-20T00:47:57;2.87;;;1.83;;
5898;SDS011;2975;50.956;6.962;2023-07-20T00:50:24;4.13;;;2.13;;
5898;SDS011;2975;50.956;6.962;2023-07-20T00:52:51;3.27;;;2.17;;
5898;SDS011;2975;50.956;6.962;2023-07-20T00:55:17;3.83;;;1.80;;
5898;SDS011;2975;50.956;6.962;2023-07-20T00:57:44;3.37;;;1.90;;
5898;SDS011;2975;50.956;6.962;2023-07-20T01:00:10;5.90;;;2.10;;
5898;SDS011;2975;50.956;6.962;2023-07-20T01:02:36;4.90;;;2.37;;
5898;SDS011;2975;50.956;6.962;2023-07-20T01:05:02;3.57;;;2.30;;
5898;SDS011;2975;50.956;6.962;2023-07-20T01:07:31;7.17;;;2.10;;
5898;SDS011;2975;50.956;6.962;2023-07-20T01:10:23;5.57;;;1.97;;
5898;SDS011;2975;50.956;6.962;2023-07-20T01:12:56;7.63;;;2.40;;
5898;SDS011;2975;50.956;6.962;2023-07-20T01:15:22;6.87;;;2.23;;
5898;SDS011;2975;50.956;6.962;2023-07-20T01:17:48;3.43;;;2.20;;
5898;SDS011;2975;50.956;6.962;2023-07-20T01:20:14;5.20;;;2.43;;
5898;SDS011;2975;50.956;6.962;2023-07-20T01:31:42;6.07;;;2.47;;
5898;SDS011;2975;50.956;6.962;2023-07-20T01:34:09;3.53;;;1.97;;
5898;SDS011;2975;50.956;6.962;2023-07-20T01:36:37;3.83;;;2.13;;
5898;SDS011;2975;50.956;6.962;2023-07-20T01:39:03;6.57;;;2.47;;
5898;SDS011;2975;50.956;6.962;2023-07-20T01:41:31;4.53;;;2.00;;
5898;SDS011;2975;50.956;6.962;2023-07-20T01:43:59;3.43;;;2.20;;
5898;SDS011;2975;50.956;6.962;2023-07-20T01:46:25;4.40;;;2.20;;
5898;SDS011;2975;50.956;6.962;2023-07-20T01:48:51;4.13;;;1.93;;
5898;SDS011;2975;50.956;6.962;2023-07-20T01:51:17;4.60;;;1.90;;
5898;SDS011;2975;50.956;6.962;2023-07-20T01:53:43;3.30;;;1.90;;
5898;SDS011;2975;50.956;6.962;2023-07-20T01:56:09;2.33;;;1.90;;
5898;SDS011;2975;50.956;6.962;2023-07-20T01:58:37;3.13;;;2.00;;
5898;SDS011;2975;50.956;6.962;2023-07-20T02:01:02;4.50;;;2.20;;
5898;SDS011;2975;50.956;6.962;2023-07-20T02:03:28;2.90;;;2.03;;
5898;SDS011;2975;50.956;6.962;2023-07-20T02:05:54;7.47;;;2.20;;
5898;SDS011;2975;50.956;6.962;2023-07-20T02:08:19;5.03;;;2.27;;
5898;SDS011;2975;50.956;6.962;2023-07-20T02:10:46;2.60;;;2.20;;
5898;SDS011;2975;50.956;6.962;2023-07-20T02:13:12;6.33;;;2.40;;
5898;SDS011;2975;50.956;6.962;2023-07-20T02:15:38;6.83;;;2.10;;
5898;SDS011;2975;50.956;6.962;2023-07-20T02:18:04;3.83;;;2.17;;
5898;SDS011;2975;50.956;6.962;2023-07-20T02:20:29;4.80;;;2.47;;
5898;SDS011;2975;50.956;6.962;2023-07-20T02:22:55;4.23;;;2.10;;
5898;SDS011;2975;50.956;6.962;2023-07-20T02:25:21;3.27;;;2.07;;
5898;SDS011;2975;50.956;6.962;2023-07-20T02:27:46;4.13;;;2.63;;
5898;SDS011;2975;50.956;6.962;2023-07-20T02:30:12;4.47;;;2.20;;
5898;SDS011;2975;50.956;6.962;2023-07-20T02:32:38;4.27;;;2.50;;
5898;SDS011;2975;50.956;6.962;2023-07-20T02:35:04;3.67;;;2.50;;
5898;SDS011;2975;50.956;6.962;2023-07-20T02:37:31;5.17;;;2.73;;
5898;SDS011;2975;50.956;6.962;2023-07-20T02:39:57;4.30;;;2.70;;
5898;SDS011;2975;50.956;6.962;2023-07-20T02:42:23;4.07;;;3.30;;
5898;SDS011;2975;50.956;6.962;2023-07-20T02:44:50;6.47;;;2.67;;
5898;SDS011;2975;50.956;6.962;2023-07-20T02:47:16;8.60;;;3.13;;
5898;SDS011;2975;50.956;6.962;2023-07-20T02:49:42;4.70;;;2.70;;
5898;SDS011;2975;50.956;6.962;2023-07-20T02:52:08;6.67;;;2.77;;
5898;SDS011;2975;50.956;6.962;2023-07-20T02:54:34;6.43;;;2.87;;
5898;SDS011;2975;50.956;6.962;2023-07-20T02:56:59;5.13;;;2.77;;
5898;SDS011;2975;50.956;6.962;2023-07-20T02:59:26;4.30;;;2.80;;
5898;SDS011;2975;50.956;6.962;2023-07-20T03:01:51;3.87;;;2.73;;
5898;SDS011;2975;50.956;6.962;2023-07-20T03:04:17;7.53;;;3.07;;
5898;SDS011;2975;50.956;6.962;2023-07-20T03:06:43;3.63;;;2.53;;
5898;SDS011;2975;50.956;6.962;2023-07-20T03:09:09;6.40;;;2.97;;
5898;SDS011;2975;50.956;6.962;2023-07-20T03:11:34;5.70;;;2.90;;
5898;SDS011;2975;50.956;6.962;2023-07-20T03:14:00;5.47;;;3.07;;
5898;SDS011;2975;50.956;6.962;2023-07-20T03:16:25;7.97;;;2.80;;
5898;SDS011;2975;50.956;6.962;2023-07-20T03:18:51;8.53;;;2.90;;
5898;SDS011;2975;50.956;6.962;2023-07-20T03:21:17;7.20;;;3.13;;
5898;SDS011;2975;50.956;6.962;2023-07-20T03:23:42;6.10;;;2.90;;
5898;SDS011;2975;50.956;6.962;2023-07-20T03:26:08;4.73;;;2.73;;
5898;SDS011;2975;50.956;6.962;2023-07-20T03:28:35;4.90;;;2.50;;
5898;SDS011;2975;50.956;6.962;2023-07-20T03:31:00;6.47;;;3.00;;
5898;SDS011;2975;50.956;6.962;2023-07-20T03:33:27;5.90;;;2.60;;
5898;SDS011;2975;50.956;6.962;2023-07-20T03:35:54;7.10;;;3.23;;
5898;SDS011;2975;50.956;6.962;2023-07-20T03:38:20;5.57;;;2.73;;
5898;SDS011;2975;50.956;6.962;2023-07-20T03:43:19;10.67;;;3.90;;
5898;SDS011;2975;50.956;6.962;2023-07-20T03:45:45;5.57;;;2.80;;
5898;SDS011;2975;50.956;6.962;2023-07-20T03:48:12;6.33;;;2.77;;
5898;SDS011;2975;50.956;6.962;2023-07-20T03:50:41;8.23;;;3.70;;
5898;SDS011;2975;50.956;6.962;2023-07-20T03:53:09;5.47;;;2.93;;
5898;SDS011;2975;50.956;6.962;2023-07-20T03:55:34;5.37;;;3.07;;
5898;SDS011;2975;50.956;6.962;2023-07-20T03:58:00;4.50;;;2.50;;
5898;SDS011;2975;50.956;6.962;2023-07-20T04:00:26;5.03;;;2.30;;
5898;SDS011;2975;50.956;6.962;2023-07-20T04:02:52;11.53;;;2.83;;
5898;SDS011;2975;50.956;6.962;2023-07-20T04:05:18;10.77;;;2.93;;
5898;SDS011;2975;50.956;6.962;2023-07-20T04:07:43;5.70;;;2.60;;
5898;SDS011;2975;50.956;6.962;2023-07-20T04:10:09;2.83;;;2.33;;
5898;SDS011;2975;50.956;6.962;2023-07-20T04:12:35;6.57;;;2.93;;
5898;SDS011;2975;50.956;6.962;2023-07-20T04:15:01;6.70;;;2.70;;
5898;SDS011;2975;50.956;6.962;2023-07-20T04:17:28;6.20;;;2.97;;
5898;SDS011;2975;50.956;6.962;2023-07-20T04:19:54;4.23;;;2.87;;
5898;SDS011;2975;50.956;6.962;2023-07-20T04:22:20;5.60;;;2.30;;
5898;SDS011;2975;50.956;6.962;2023-07-20T04:24:46;5.80;;;2.53;;
5898;SDS011;2975;50.956;6.962;2023-07-20T04:27:11;7.83;;;2.67;;
5898;SDS011;2975;50.956;6.962;2023-07-20T04:29:37;4.90;;;2.57;;
5898;SDS011;2975;50.956;6.962;2023-07-20T04:32:03;7.97;;;2.47;;
5898;SDS011;2975;50.956;6.962;2023-07-20T04:34:29;3.33;;;2.87;;
5898;SDS011;2975;50.956;6.962;2023-07-20T04:36:54;6.30;;;2.97;;
5898;SDS011;2975;50.956;6.962;2023-07-20T04:39:20;7.00;;;3.30;;
5898;SDS011;2975;50.956;6.962;2023-07-20T04:41:45;4.60;;;2.47;;
5898;SDS011;2975;50.956;6.962;2023-07-20T04:44:11;5.70;;;2.70;;
5898;SDS011;2975;50.956;6.962;2023-07-20T04:46:38;8.33;;;2.90;;
5898;SDS011;2975;50.956;6.962;2023-07-20T04:49:05;6.17;;;2.70;;
5898;SDS011;2975;50.956;6.962;2023-07-20T04:51:30;7.43;;;3.00;;
5898;SDS011;2975;50.956;6.962;2023-07-20T04:53:56;9.20;;;3.77;;
5898;SDS011;2975;50.956;6.962;2023-07-20T04:56:22;7.07;;;3.13;;
5898;SDS011;2975;50.956;6.962;2023-07-20T04:58:49;4.30;;;3.10;;
5898;SDS011;2975;50.956;6.962;2023-07-20T05:01:15;5.57;;;2.80;;
5898;SDS011;2975;50.956;6.962;2023-07-20T05:03:40;8.73;;;3.30;;
5898;SDS011;2975;50.956;6.962;2023-07-20T05:06:06;4.20;;;2.57;;
5898;SDS011;2975;50.956;6.962;2023-07-20T05:08:32;8.40;;;2.90;;
5898;SDS011;2975;50.956;6.962;2023-07-20T05:10:57;4.50;;;2.93;;
5898;SDS011;2975;50.956;6.962;2023-07-20T05:13:24;4.83;;;2.93;;
5898;SDS011;2975;50.956;6.962;2023-07-20T05:15:51;9.53;;;3.40;;
5898;SDS011;2975;50.956;6.962;2023-07-20T05:18:18;7.97;;;3.47;;
5898;SDS011;2975;50.956;6.962;2023-07-20T05:20:48;10.63;;;3.03;;
5898;SDS011;2975;50.956;6.962;2023-07-20T05:23:16;6.27;;;3.23;;
5898;SDS011;2975;50.956;6.962;2023-07-20T05:25:43;9.13;;;3.70;;
5898;SDS011;2975;50.956;6.962;2023-07-20T05:28:08;7.23;;;3.50;;
5898;SDS011;2975;50.956;6.962;2023-07-20T05:30:34;8.57;;;3.90;;
5898;SDS011;2975;50.956;6.962;2023-07-20T05:33:00;10.70;;;3.97;;
5898;SDS011;2975;50.956;6.962;2023-07-20T05:35:26;11.63;;;6.23;;
5898;SDS011;2975;50.956;6.962;2023-07-20T05:37:52;7.37;;;3.77;;
5898;SDS011;2975;50.956;6.962;2023-07-20T05:40:17;8.33;;;4.00;;
5898;SDS011;2975;50.956;6.962;2023-07-20T05:42:47;8.50;;;4.30;;
5898;SDS011;2975;50.956;6.962;2023-07-20T05:45:14;6.13;;;4.20;;
5898;SDS011;2975;50.956;6.962;2023-07-20T05:47:40;7.27;;;3.60;;
5898;SDS011;2975;50.956;6.962;2023-07-20T05:50:06;4.80;;;3.73;;
5898;SDS011;2975;50.956;6.962;2023-07-20T05:52:32;7.17;;;4.80;;
5898;SDS011;2975;50.956;6.962;2023-07-20T05:54:58;9.50;;;4.23;;
5898;SDS011;2975;50.956;6.962;2023-07-20T05:57:23;10.63;;;3.83;;
5898;SDS011;2975;50.956;6.962;2023-07-20T05:59:49;10.07;;;4.90;;
5898;SDS011;2975;50.956;6.962;2023-07-20T06:02:15;8.63;;;4.60;;
5898;SDS011;2975;50.956;6.962;2023-07-20T06:04:41;9.33;;;5.30;;
5898;SDS011;2975;50.956;6.962;2023-07-20T06:07:06;11.53;;;5.20;;
5898;SDS011;2975;50.956;6.962;2023-07-20T06:09:35;12.30;;;4.67;;
5898;SDS011;2975;50.956;6.962;2023-07-20T06:12:01;8.93;;;5.63;;
5898;SDS011;2975;50.956;6.962;2023-07-20T06:14:27;8.97;;;4.87;;
5898;SDS011;2975;50.956;6.962;2023-07-20T06:16:52;6.67;;;4.90;;
5898;SDS011;2975;50.956;6.962;2023-07-20T06:19:18;7.30;;;4.63;;
5898;SDS011;2975;50.956;6.962;2023-07-20T06:21:44;8.90;;;6.00;;
5898;SDS011;2975;50.956;6.962;2023-07-20T06:24:09;8.83;;;5.97;;
5898;SDS011;2975;50.956;6.962;2023-07-20T06:26:35;7.80;;;5.57;;
5898;SDS011;2975;50.956;6.962;2023-07-20T06:29:04;11.00;;;6.30;;
5898;SDS011;2975;50.956;6.962;2023-07-20T06:31:31;10.37;;;5.40;;
5898;SDS011;2975;50.956;6.962;2023-07-20T06:33:57;9.17;;;5.90;;
5898;SDS011;2975;50.956;6.962;2023-07-20T06:36:23;8.60;;;4.77;;
5898;SDS011;2975;50.956;6.962;2023-07-20T06:38:50;8.90;;;4.80;;
5898;SDS011;2975;50.956;6.962;2023-07-20T06:41:16;8.77;;;5.13;;
5898;SDS011;2975;50.956;6.962;2023-07-20T06:43:42;8.97;;;4.67;;
5898;SDS011;2975;50.956;6.962;2023-07-20T06:46:07;9.67;;;5.70;;
5898;SDS011;2975;50.956;6.962;2023-07-20T06:48:33;20.80;;;6.63;;
5898;SDS011;2975;50.956;6.962;2023-07-20T06:50:58;9.07;;;6.20;;
5898;SDS011;2975;50.956;6.962;2023-07-20T06:53:24;8.37;;;6.07;;
5898;SDS011;2975;50.956;6.962;2023-07-20T06:55:50;7.70;;;5.60;;
5898;SDS011;2975;50.956;6.962;2023-07-20T06:58:15;7.03;;;5.67;;
5898;SDS011;2975;50.956;6.962;2023-07-20T07:00:41;9.23;;;5.47;;
5898;SDS011;2975;50.956;6.962;2023-07-20T07:03:07;8.37;;;4.97;;
5898;SDS011;2975;50.956;6.962;2023-07-20T07:05:35;7.93;;;5.70;;
5898;SDS011;2975;50.956;6.962;2023-07-20T07:08:02;7.07;;;5.27;;
5898;SDS011;2975;50.956;6.962;2023-07-20T07:10:29;8.23;;;4.73;;
5898;SDS011;2975;50.956;6.962;2023-07-20T07:12:54;6.30;;;4.30;;
5898;SDS011;2975;50.956;6.962;2023-07-20T07:15:20;8.10;;;4.47;;
5898;SDS011;2975;50.956;6.962;2023-07-20T07:17:45;7.83;;;4.50;;
5898;SDS011;2975;50.956;6.962;2023-07-20T07:20:11;7.27;;;4.40;;
5898;SDS011;2975;50.956;6.962;2023-07-20T07:22:37;7.00;;;4.28;;
5898;SDS011;2975;50.956;6.962;2023-07-20T07:25:03;5.45;;;4.75;;
5898;SDS011;2975;50.956;6.962;2023-07-20T07:27:29;5.97;;;4.10;;
5898;SDS011;2975;50.956;6.962;2023-07-20T07:29:54;6.50;;;4.70;;
5898;SDS011;2975;50.956;6.962;2023-07-20T07:32:20;5.32;;;4.10;;
5898;SDS011;2975;50.956;6.962;2023-07-20T07:34:46;5.10;;;3.67;;
5898;SDS011;2975;50.956;6.962;2023-07-20T07:37:12;7.18;;;5.40;;
5898;SDS011;2975;50.956;6.962;2023-07-20T07:39:38;7.03;;;4.85;;
5898;SDS011;2975;50.956;6.962;2023-07-20T07:42:04;6.88;;;4.75;;
5898;SDS011;2975;50.956;6.962;2023-07-20T07:44:30;9.17;;;5.20;;
5898;SDS011;2975;50.956;6.962;2023-07-20T07:46:56;5.85;;;4.30;;
5898;SDS011;2975;50.956;6.962;2023-07-20T08:32:20;3.57;;;2.07;;
5898;SDS011;2975;50.956;6.962;2023-07-20T08:34:46;3.87;;;2.67;;
5898;SDS011;2975;50.956;6.962;2023-07-20T08:37:11;5.23;;;2.73;;
5898;SDS011;2975;50.956;6.962;2023-07-20T08:39:37;4.50;;;2.47;;
5898;SDS011;2975;50.956;6.962;2023-07-20T08:42:03;4.27;;;2.70;;
5898;SDS011;2975;50.956;6.962;2023-07-20T08:44:34;3.57;;;2.20;;
5898;SDS011;2975;50.956;6.962;2023-07-20T08:47:02;3.60;;;1.80;;
5898;SDS011;2975;50.956;6.962;2023-07-20T08:49:29;2.07;;;1.90;;
5898;SDS011;2975;50.956;6.962;2023-07-20T08:51:59;4.43;;;2.30;;
5898;SDS011;2975;50.956;6.962;2023-07-20T08:54:26;2.40;;;2.20;;
5898;SDS011;2975;50.956;6.962;2023-07-20T08:56:54;2.67;;;1.87;;
5898;SDS011;2975;50.956;6.962;2023-07-20T08:59:22;5.13;;;2.00;;
5898;SDS011;2975;50.956;6.962;2023-07-20T09:01:49;2.08;;;1.85;;
5898;SDS011;2975;50.956;6.962;2023-07-20T09:04:17;4.25;;;1.90;;
5898;SDS011;2975;50.956;6.962;2023-07-20T09:06:43;4.57;;;2.13;;
5898;SDS011;2975;50.956;6.962;2023-07-20T09:09:08;2.75;;;2.10;;
5898;SDS011;2975;50.956;6.962;2023-07-20T09:11:34;4.23;;;2.23;;
5898;SDS011;2975;50.956;6.962;2023-07-20T09:14:06;4.80;;;1.93;;
5898;SDS011;2975;50.956;6.962;2023-07-20T09:16:32;2.72;;;1.33;;
5898;SDS011;2975;50.956;6.962;2023-07-20T09:19:13;2.03;;;1.20;;
5898;SDS011;2975;50.956;6.962;2023-07-20T09:21:46;1.15;;;1.15;;
5898;SDS011;2975;50.956;6.962;2023-07-20T09:24:19;2.47;;;1.00;;
5898;SDS011;2975;50.956;6.962;2023-07-20T09:26:46;1.40;;;1.20;;
5898;SDS011;2975;50.956;6.962;2023-07-20T09:29:19;3.40;;;1.40;;
5898;SDS011;2975;50.956;6.962;2023-07-20T09:32:00;3.75;;;1.70;;
5898;SDS011;2975;50.956;6.962;2023-07-20T09:34:30;2.47;;;1.40;;
5898;SDS011;2975;50.956;6.962;2023-07-20T09:36:57;7.30;;;2.08;;
5898;SDS011;2975;50.956;6.962;2023-07-20T09:39:26;2.33;;;1.70;;
5898;SDS011;2975;50.956;6.962;2023-07-20T09:41:52;2.30;;;1.80;;
5898;SDS011;2975;50.956;6.962;2023-07-20T09:44:18;3.80;;;1.60;;
5898;SDS011;2975;50.956;6.962;2023-07-20T09:46:48;3.20;;;2.03;;
5898;SDS011;2975;50.956;6.962;2023-07-20T09:49:19;2.35;;;2.05;;
5898;SDS011;2975;50.956;6.962;2023-07-20T09:51:45;5.63;;;1.80;;
5898;SDS011;2975;50.956;6.962;2023-07-20T09:54:11;4.95;;;1.48;;
5898;SDS011;2975;50.956;6.962;2023-07-20T09:56:38;2.33;;;1.98;;
5898;SDS011;2975;50.956;6.962;2023-07-20T09:59:05;1.50;;;1.27;;
5898;SDS011;2975;50.956;6.962;2023-07-20T10:01:31;1.40;;;1.30;;
5898;SDS011;2975;50.956;6.962;2023-07-20T10:03:59;2.67;;;1.40;;
5898;SDS011;2975;50.956;6.962;2023-07-20T10:06:29;2.95;;;1.35;;
5898;SDS011;2975;50.956;6.962;2023-07-20T10:09:00;1.98;;;1.20;;
5898;SDS011;2975;50.956;6.962;2023-07-20T10:11:28;3.67;;;2.10;;
5898;SDS011;2975;50.956;6.962;2023-07-20T10:13:56;1.55;;;1.10;;
5898;SDS011;2975;50.956;6.962;2023-07-20T10:16:36;2.15;;;1.20;;
5898;SDS011;2975;50.956;6.962;2023-07-20T10:19:07;1.45;;;0.90;;
5898;SDS011;2975;50.956;6.962;2023-07-20T10:21:42;0.98;;;0.90;;
5898;SDS011;2975;50.956;6.962;2023-07-20T10:24:13;0.85;;;0.82;;
5898;SDS011;2975;50.956;6.962;2023-07-20T10:26:39;1.63;;;0.90;;
5898;SDS011;2975;50.956;6.962;2023-07-20T10:29:05;1.23;;;1.13;;
5898;SDS011;2975;50.956;6.962;2023-07-20T10:31:32;2.17;;;1.00;;
5898;SDS011;2975;50.956;6.962;2023-07-20T10:33:58;1.30;;;1.20;;
5898;SDS011;2975;50.956;6.962;2023-07-20T10:36:25;2.60;;;0.93;;
5898;SDS011;2975;50.956;6.962;2023-07-20T10:38:53;1.60;;;1.20;;
5898;SDS011;2975;50.956;6.962;2023-07-20T10:41:21;2.47;;;1.20;;
5898;SDS011;2975;50.956;6.962;2023-07-20T10:43:50;1.45;;;1.10;;
5898;SDS011;2975;50.956;6.962;2023-07-20T10:49:04;1.95;;;1.10;;
5898;SDS011;2975;50.956;6.962;2023-07-20T10:54:07;1.05;;;1.00;;
5898;SDS011;2975;50.956;6.962;2023-07-20T10:56:33;1.08;;;0.98;;
5898;SDS011;2975;50.956;6.962;2023-07-20T10:58:59;3.08;;;1.15;;
5898;SDS011;2975;50.956;6.962;2023-07-20T11:01:29;1.00;;;1.00;;
5898;SDS011;2975;50.956;6.962;2023-07-20T11:03:58;3.22;;;1.25;;
5898;SDS011;2975;50.956;6.962;2023-07-20T11:11:35;1.35;;;0.98;;
5898;SDS011;2975;50.956;6.962;2023-07-20T11:14:03;0.95;;;0.93;;
5898;SDS011;2975;50.956;6.962;2023-07-20T11:16:34;1.10;;;1.00;;
5898;SDS011;2975;50.956;6.962;2023-07-20T11:19:04;1.00;;;0.90;;
5898;SDS011;2975;50.956;6.962;2023-07-20T11:21:35;1.17;;;1.05;;
5898;SDS011;2975;50.956;6.962;2023-07-20T11:24:03;2.47;;;1.00;;
5898;SDS011;2975;50.956;6.962;2023-07-20T11:26:30;1.63;;;1.10;;
5898;SDS011;2975;50.956;6.962;2023-07-20T11:28:55;2.20;;;1.50;;
5898;SDS011;2975;50.956;6.962;2023-07-20T11:31:21;0.90;;;0.90;;
5898;SDS011;2975;50.956;6.962;2023-07-20T11:33:46;2.05;;;0.80;;
5898;SDS011;2975;50.956;6.962;2023-07-20T11:36:12;3.13;;;1.00;;
5898;SDS011;2975;50.956;6.962;2023-07-20T11:38:40;1.50;;;0.98;;
5898;SDS011;2975;50.956;6.962;2023-07-20T11:41:08;1.27;;;0.98;;
5898;SDS011;2975;50.956;6.962;2023-07-20T11:43:33;2.85;;;1.00;;
5898;SDS011;2975;50.956;6.962;2023-07-20T11:46:02;1.67;;;1.10;;
5898;SDS011;2975;50.956;6.962;2023-07-20T11:48:30;3.10;;;1.50;;
5898;SDS011;2975;50.956;6.962;2023-07-20T11:50:55;1.10;;;1.00;;
5898;SDS011;2975;50.956;6.962;2023-07-20T11:53:21;0.70;;;0.70;;
5898;SDS011;2975;50.956;6.962;2023-07-20T11:55:49;1.00;;;0.95;;
5898;SDS011;2975;50.956;6.962;2023-07-20T11:58:15;1.00;;;0.77;;
5898;SDS011;2975;50.956;6.962;2023-07-20T12:00:41;0.75;;;0.75;;
5898;SDS011;2975;50.956;6.962;2023-07-20T12:03:11;1.05;;;0.95;;
5898;SDS011;2975;50.956;6.962;2023-07-20T12:05:38;1.67;;;1.08;;
5898;SDS011;2975;50.956;6.962;2023-07-20T12:08:04;0.77;;;0.77;;
5898;SDS011;2975;50.956;6.962;2023-07-20T12:10:30;1.45;;;0.90;;
5898;SDS011;2975;50.956;6.962;2023-07-20T12:13:00;0.70;;;0.70;;
5898;SDS011;2975;50.956;6.962;2023-07-20T12:15:28;1.48;;;1.05;;
5898;SDS011;2975;50.956;6.962;2023-07-20T12:17:58;1.02;;;0.93;;
5898;SDS011;2975;50.956;6.962;2023-07-20T12:20:29;1.65;;;0.85;;
5898;SDS011;2975;50.956;6.962;2023-07-20T12:23:03;1.95;;;0.90;;
5898;SDS011;2975;50.956;6.962;2023-07-20T12:28:05;1.20;;;0.93;;
5898;SDS011;2975;50.956;6.962;2023-07-20T12:30:34;2.00;;;1.20;;
5898;SDS011;2975;50.956;6.962;2023-07-20T12:33:01;1.20;;;0.90;;
5898;SDS011;2975;50.956;6.962;2023-07-20T12:35:27;1.08;;;1.05;;
5898;SDS011;2975;50.956;6.962;2023-07-20T12:37:54;2.22;;;1.00;;
5898;SDS011;2975;50.956;6.962;2023-07-20T12:40:20;1.08;;;0.90;;
5898;SDS011;2975;50.956;6.962;2023-07-20T12:42:46;1.48;;;0.95;;
5898;SDS011;2975;50.956;6.962;2023-07-20T12:45:11;0.82;;;0.82;;
5898;SDS011;2975;50.956;6.962;2023-07-20T12:47:38;2.38;;;0.85;;
5898;SDS011;2975;50.956;6.962;2023-07-20T12:50:04;1.10;;;0.80;;
5898;SDS011;2975;50.956;6.962;2023-07-20T12:52:31;0.90;;;0.90;;
5898;SDS011;2975;50.956;6.962;2023-07-20T12:54:57;1.48;;;0.90;;
5898;SDS011;2975;50.956;6.962;2023-07-20T12:57:23;1.27;;;0.80;;
5898;SDS011;2975;50.956;6.962;2023-07-20T12:59:48;2.45;;;1.08;;
5898;SDS011;2975;50.956;6.962;2023-07-20T13:02:14;1.48;;;0.73;;
5898;SDS011;2975;50.956;6.962;2023-07-20T13:04:40;2.08;;;1.00;;
5898;SDS011;2975;50.956;6.962;2023-07-20T13:07:09;3.95;;;0.88;;
5898;SDS011;2975;50.956;6.962;2023-07-20T13:09:36;0.90;;;0.90;;
5898;SDS011;2975;50.956;6.962;2023-07-20T13:12:02;3.05;;;1.23;;
5898;SDS011;2975;50.956;6.962;2023-07-20T13:14:28;2.38;;;0.80;;
5898;SDS011;2975;50.956;6.962;2023-07-20T13:16:55;1.02;;;0.95;;
5898;SDS011;2975;50.956;6.962;2023-07-20T13:19:21;2.65;;;1.13;;
5898;SDS011;2975;50.956;6.962;2023-07-20T13:21:46;1.67;;;0.88;;
5898;SDS011;2975;50.956;6.962;2023-07-20T13:24:12;1.15;;;0.80;;
5898;SDS011;2975;50.956;6.962;2023-07-20T13:26:38;0.82;;;0.82;;
5898;SDS011;2975;50.956;6.962;2023-07-20T13:29:03;2.67;;;1.00;;
5898;SDS011;2975;50.956;6.962;2023-07-20T13:31:29;1.67;;;0.90;;
5898;SDS011;2975;50.956;6.962;2023-07-20T13:33:54;2.35;;;0.90;;
5898;SDS011;2975;50.956;6.962;2023-07-20T13:36:21;1.20;;;1.00;;
5898;SDS011;2975;50.956;6.962;2023-07-20T13:38:48;1.17;;;1.08;;
5898;SDS011;2975;50.956;6.962;2023-07-20T13:41:13;1.48;;;0.90;;
5898;SDS011;2975;50.956;6.962;2023-07-20T13:43:41;3.38;;;1.15;;
5898;SDS011;2975;50.956;6.962;2023-07-20T13:46:07;2.00;;;1.17;;
5898;SDS011;2975;50.956;6.962;2023-07-20T13:48:32;0.88;;;0.88;;
5898;SDS011;2975;50.956;6.962;2023-07-20T13:50:58;2.10;;;1.15;;
5898;SDS011;2975;50.956;6.962;2023-07-20T13:53:24;2.30;;;0.93;;
5898;SDS011;2975;50.956;6.962;2023-07-20T13:55:49;1.38;;;1.00;;
5898;SDS011;2975;50.956;6.962;2023-07-20T13:58:15;1.10;;;1.00;;
5898;SDS011;2975;50.956;6.962;2023-07-20T14:00:41;1.73;;;0.90;;
5898;SDS011;2975;50.956;6.962;2023-07-20T14:03:06;1.35;;;1.02;;
5898;SDS011;2975;50.956;6.962;2023-07-20T14:05:32;1.42;;;0.80;;
5898;SDS011;2975;50.956;6.962;2023-07-20T14:07:58;4.40;;;1.10;;
5898;SDS011;2975;50.956;6.962;2023-07-20T14:10:24;3.60;;;0.93;;
5898;SDS011;2975;50.956;6.962;2023-07-20T14:12:50;1.33;;;1.02;;
5898;SDS011;2975;50.956;6.962;2023-07-20T14:15:15;1.08;;;1.08;;
5898;SDS011;2975;50.956;6.962;2023-07-20T14:17:42;4.32;;;0.82;;
5898;SDS011;2975;50.956;6.962;2023-07-20T14:20:08;2.30;;;0.80;;
5898;SDS011;2975;50.956;6.962;2023-07-20T14:22:34;0.70;;;0.70;;
5898;SDS011;2975;50.956;6.962;2023-07-20T14:25:00;1.33;;;0.88;;
5898;SDS011;2975;50.956;6.962;2023-07-20T14:27:25;0.80;;;0.80;;
5898;SDS011;2975;50.956;6.962;2023-07-20T14:29:51;0.73;;;0.70;;
5898;SDS011;2975;50.956;6.962;2023-07-20T14:32:18;1.40;;;0.93;;
5898;SDS011;2975;50.956;6.962;2023-07-20T14:34:43;0.85;;;0.80;;
5898;SDS011;2975;50.956;6.962;2023-07-20T14:37:09;2.22;;;0.90;;
5898;SDS011;2975;50.956;6.962;2023-07-20T14:39:35;2.55;;;1.30;;
5898;SDS011;2975;50.956;6.962;2023-07-20T14:42:00;1.42;;;1.00;;
5898;SDS011;2975;50.956;6.962;2023-07-20T14:44:28;3.53;;;1.00;;
5898;SDS011;2975;50.956;6.962;2023-07-20T14:46:54;1.05;;;0.95;;
5898;SDS011;2975;50.956;6.962;2023-07-20T14:49:20;1.10;;;0.80;;
5898;SDS011;2975;50.956;6.962;2023-07-20T14:51:46;1.50;;;1.40;;
5898;SDS011;2975;50.956;6.962;2023-07-20T14:54:12;2.25;;;1.13;;
5898;SDS011;2975;50.956;6.962;2023-07-20T14:56:38;2.00;;;0.90;;
5898;SDS011;2975;50.956;6.962;2023-07-20T14:59:10;2.60;;;1.15;;
5898;SDS011;2975;50.956;6.962;2023-07-20T15:01:35;1.15;;;0.98;;
5898;SDS011;2975;50.956;6.962;2023-07-20T15:04:01;2.00;;;1.20;;
5898;SDS011;2975;50.956;6.962;2023-07-20T15:06:26;2.55;;;1.20;;
5898;SDS011;2975;50.956;6.962;2023-07-20T15:08:55;0.93;;;0.80;;
5898;SDS011;2975;50.956;6.962;2023-07-20T15:11:21;1.30;;;1.20;;
5898;SDS011;2975;50.956;6.962;2023-07-20T15:13:46;2.28;;;1.10;;
5898;SDS011;2975;50.956;6.962;2023-07-20T15:16:12;2.38;;;1.02;;
5898;SDS011;2975;50.956;6.962;2023-07-20T15:18:37;5.65;;;1.08;;
5898;SDS011;2975;50.956;6.962;2023-07-20T15:21:03;1.20;;;1.10;;
5898;SDS011;2975;50.956;6.962;2023-07-20T15:23:28;2.28;;;1.30;;
5898;SDS011;2975;50.956;6.962;2023-07-20T15:25:54;0.80;;;0.80;;
5898;SDS011;2975;50.956;6.962;2023-07-20T15:28:20;2.17;;;0.93;;
5898;SDS011;2975;50.956;6.962;2023-07-20T15:30:46;3.30;;;1.10;;
5898;SDS011;2975;50.956;6.962;2023-07-20T15:33:12;2.35;;;0.93;;
5898;SDS011;2975;50.956;6.962;2023-07-20T15:35:39;5.53;;;0.70;;
5898;SDS011;2975;50.956;6.962;2023-07-20T15:38:04;1.80;;;0.90;;
5898;SDS011;2975;50.956;6.962;2023-07-20T15:40:30;1.63;;;0.80;;
5898;SDS011;2975;50.956;6.962;2023-07-20T15:42:55;1.48;;;1.30;;
5898;SDS011;2975;50.956;6.962;2023-07-20T15:45:21;1.15;;;1.00;;
5898;SDS011;2975;50.956;6.962;2023-07-20T15:47:47;0.88;;;0.80;;
5898;SDS011;2975;50.956;6.962;2023-07-20T15:50:13;3.50;;;0.95;;
5898;SDS011;2975;50.956;6.962;2023-07-20T15:52:39;2.22;;;1.67;;
5898;SDS011;2975;50.956;6.962;2023-07-20T15:55:06;0.93;;;0.93;;
5898;SDS011;2975;50.956;6.962;2023-07-20T15:57:33;1.85;;;0.80;;
5898;SDS011;2975;50.956;6.962;2023-07-20T15:59:59;1.75;;;0.85;;
5898;SDS011;2975;50.956;6.962;2023-07-20T16:02:25;3.25;;;0.95;;
5898;SDS011;2975;50.956;6.962;2023-07-20T16:04:51;1.23;;;0.90;;
5898;SDS011;2975;50.956;6.962;2023-07-20T16:07:16;2.38;;;1.00;;
5898;SDS011;2975;50.956;6.962;2023-07-20T16:09:42;1.00;;;1.00;;
5898;SDS011;2975;50.956;6.962;2023-07-20T16:12:08;0.98;;;0.88;;
5898;SDS011;2975;50.956;6.962;2023-07-20T16:14:34;3.25;;;1.42;;
5898;SDS011;2975;50.956;6.962;2023-07-20T16:16:59;5.68;;;1.05;;
5898;SDS011;2975;50.956;6.962;2023-07-20T16:19:26;1.92;;;0.73;;